Time,TemperatureF,DewpointF,PressureIn,WindDirection,WindDirectionDegrees,WindSpeedMPH,WindSpeedGustMPH,Humidity,HourlyPrecipIn,Conditions,Clouds,dailyrainin,SoftwareType,DateUTC
2013-07-03 00:00:00,69.1,59.0,29.98,ENE,61,0.0,0.0,69,0.00,,,0.00,weatherlink.com 1.10,2013-07-03 05:00:00,
2013-07-03 00:15:00,68.8,58.0,29.98,ENE,61,0.0,0.0,68,0.00,,,0.00,weatherlink.com 1.10,2013-07-03 05:15:00,
2013-07-03 00:30:00,68.8,56.0,29.98,ENE,61,0.0,0.0,64,0.00,,,0.00,weatherlink.com 1.10,2013-07-03 05:30:00,
2013-07-03 00:45:00,70.3,55.0,29.98,ENE,61,0.0,0.0,59,0.00,,,0.00,weatherlink.com 1.10,2013-07-03 05:45:00,
2013-07-03 01:00:00,69.8,57.0,29.98,ENE,60,0.0,0.0,65,0.00,,,0.00,weatherlink.com 1.10,2013-07-03 06:00:00,
2013-07-03 01:45:00,67.8,58.0,29.98,ENE,60,0.0,0.0,72,0.00,,,0.00,weatherlink.com 1.10,2013-07-03 06:45:00,
2013-07-03 02:00:00,69.7,55.0,29.98,NE,37,3.0,4.0,60,0.00,,,0.00,weatherlink.com 1.10,2013-07-03 07:00:00,
2013-07-03 03:15:00,68.8,55.0,29.98,ENE,64,2.0,3.0,61,0.00,,,0.00,weatherlink.com 1.10,2013-07-03 08:15:00,
2013-07-03 03:30:00,68.5,54.0,29.97,ENE,58,3.0,4.0,61,0.00,,,0.00,weatherlink.com 1.10,2013-07-03 08:30:00,
2013-07-03 03:45:00,68.3,54.0,29.97,NE,50,3.0,5.0,60,0.00,,,0.00,weatherlink.com 1.10,2013-07-03 08:45:00,
2013-07-03 04:01:00,68.8,54.0,29.97,NE,54,4.0,5.0,59,0.00,,,0.00,weatherlink.com 1.10,2013-07-03 09:01:00,
2013-07-03 04:16:00,69.4,53.0,29.97,ENE,58,6.0,6.0,56,0.00,,,0.00,weatherlink.com 1.10,2013-07-03 09:16:00,
2013-07-03 04:31:00,69.6,53.0,29.97,NE,48,4.0,5.0,56,0.00,,,0.00,weatherlink.com 1.10,2013-07-03 09:31:00,
2013-07-03 04:46:00,69.8,53.0,29.97,ENE,61,4.0,9.0,56,0.00,,,0.00,weatherlink.com 1.10,2013-07-03 09:46:00,
2013-07-03 05:01:00,69.4,53.0,29.96,NE,54,6.0,7.0,57,0.00,,,0.00,weatherlink.com 1.10,2013-07-03 10:01:00,
2013-07-03 05:16:00,68.9,53.0,29.96,NE,44,3.0,4.0,58,0.00,,,0.00,weatherlink.com 1.10,2013-07-03 10:16:00,
2013-07-03 05:31:00,68.0,53.0,29.96,NE,47,5.0,5.0,60,0.00,,,0.00,weatherlink.com 1.10,2013-07-03 10:31:00,
2013-07-03 05:46:00,68.2,54.0,29.96,NE,52,4.0,6.0,60,0.00,,,0.00,weatherlink.com 1.10,2013-07-03 10:46:00,
2013-07-03 06:01:00,68.2,54.0,29.96,NE,46,3.0,6.0,60,0.00,,,0.00,weatherlink.com 1.10,2013-07-03 11:01:00,
2013-07-03 06:16:00,68.0,53.0,29.96,NE,56,3.0,4.0,60,0.00,,,0.00,weatherlink.com 1.10,2013-07-03 11:16:00,
2013-07-03 06:31:00,67.6,54.0,29.96,ENE,64,2.0,3.0,61,0.00,,,0.00,weatherlink.com 1.10,2013-07-03 11:31:00,
2013-07-03 06:46:00,66.6,54.0,29.97,ENE,58,1.0,2.0,64,0.00,,,0.00,weatherlink.com 1.10,2013-07-03 11:46:00,
2013-07-03 07:01:00,67.1,54.0,29.97,ENE,62,3.0,4.0,64,0.00,,,0.00,weatherlink.com 1.10,2013-07-03 12:01:00,
2013-07-03 07:16:00,67.9,55.0,29.97,ENE,77,2.0,3.0,63,0.00,,,0.00,weatherlink.com 1.10,2013-07-03 12:16:00,
2013-07-03 07:31:00,68.8,56.0,29.98,ENE,60,3.0,4.0,63,0.00,,,0.00,weatherlink.com 1.10,2013-07-03 12:31:00,
2013-07-03 08:01:00,71.4,57.0,29.99,NE,47,4.0,6.0,61,0.00,,,0.00,weatherlink.com 1.10,2013-07-03 13:01:00,
2013-07-03 08:16:00,72.1,58.0,29.99,ENE,72,5.0,6.0,61,0.00,,,0.00,weatherlink.com 1.10,2013-07-03 13:16:00,
2013-07-03 09:01:00,75.8,58.0,30.00,ENE,77,4.0,8.0,54,0.00,,,0.00,weatherlink.com 1.10,2013-07-03 14:01:00,
2013-07-03 09:16:00,77.1,58.0,30.00,ENE,78,7.0,9.0,52,0.00,,,0.00,weatherlink.com 1.10,2013-07-03 14:16:00,
2013-07-03 09:31:00,78.5,58.0,30.00,NE,46,6.0,9.0,50,0.00,,,0.00,weatherlink.com 1.10,2013-07-03 14:31:00,
2013-07-03 09:46:00,80.7,59.0,30.00,NE,44,6.0,8.0,48,0.00,,,0.00,weatherlink.com 1.10,2013-07-03 14:46:00,
2013-07-03 10:01:00,81.9,60.0,30.00,ENE,74,6.0,8.0,47,0.00,,,0.00,weatherlink.com 1.10,2013-07-03 15:01:00,
2013-07-03 10:16:00,82.7,59.0,30.00,East,82,9.0,9.0,45,0.00,,,0.00,weatherlink.com 1.10,2013-07-03 15:16:00,
2013-07-03 10:31:00,84.5,59.0,30.00,East,91,5.0,9.0,42,0.00,,,0.00,weatherlink.com 1.10,2013-07-03 15:31:00,
2013-07-03 10:46:00,85.7,59.0,30.00,East,79,6.0,7.0,40,0.00,,,0.00,weatherlink.com 1.10,2013-07-03 15:46:00,
2013-07-03 11:17:00,88.4,57.0,29.99,ENE,57,3.0,7.0,34,0.00,,,0.00,weatherlink.com 1.10,2013-07-03 16:17:00,
2013-07-03 11:32:00,90.0,50.0,29.99,ENE,78,5.0,8.0,25,0.00,,,0.00,weatherlink.com 1.10,2013-07-03 16:32:00,
2013-07-03 11:47:00,90.6,48.0,29.99,NW,311,4.0,10.0,23,0.00,,,0.00,weatherlink.com 1.10,2013-07-03 16:47:00,
2013-07-03 12:17:00,91.8,48.0,29.98,NE,47,11.0,15.0,22,0.00,,,0.00,weatherlink.com 1.10,2013-07-03 17:17:00,
2013-07-03 12:32:00,90.9,47.0,29.98,ENE,74,3.0,10.0,22,0.00,,,0.00,weatherlink.com 1.10,2013-07-03 17:32:00,
2013-07-03 12:47:00,92.1,46.0,29.97,East,84,8.0,11.0,20,0.00,,,0.00,weatherlink.com 1.10,2013-07-03 17:47:00,
2013-07-03 13:02:00,92.0,44.0,29.96,NE,46,12.0,14.0,19,0.00,,,0.00,weatherlink.com 1.10,2013-07-03 18:02:00,
2013-07-03 13:32:00,92.7,46.0,29.95,NE,36,9.0,12.0,20,0.00,,,0.00,weatherlink.com 1.10,2013-07-03 18:32:00,
2013-07-03 13:47:00,93.1,47.0,29.95,NE,39,4.0,9.0,20,0.00,,,0.00,weatherlink.com 1.10,2013-07-03 18:47:00,
2013-07-03 14:02:00,93.2,47.0,29.94,NE,53,8.0,16.0,20,0.00,,,0.00,weatherlink.com 1.10,2013-07-03 19:02:00,
2013-07-03 14:17:00,93.6,47.0,29.94,ESE,118,5.0,13.0,20,0.00,,,0.00,weatherlink.com 1.10,2013-07-03 19:17:00,
2013-07-03 14:32:00,93.1,45.0,29.93,SSW,210,1.0,7.0,19,0.00,,,0.00,weatherlink.com 1.10,2013-07-03 19:32:00,
2013-07-03 15:02:00,93.9,46.0,29.92,ENE,57,7.0,11.0,19,0.00,,,0.00,weatherlink.com 1.10,2013-07-03 20:02:00,
2013-07-03 15:17:00,94.4,46.0,29.92,NE,46,9.0,11.0,19,0.00,,,0.00,weatherlink.com 1.10,2013-07-03 20:17:00,
2013-07-03 15:32:00,94.2,46.0,29.91,SW,218,3.0,7.0,19,0.00,,,0.00,weatherlink.com 1.10,2013-07-03 20:32:00,
2013-07-03 15:47:00,94.6,46.0,29.90,East,92,4.0,9.0,19,0.00,,,0.00,weatherlink.com 1.10,2013-07-03 20:47:00,
2013-07-03 16:02:00,96.0,46.0,29.90,ENE,64,3.0,4.0,18,0.00,,,0.00,weatherlink.com 1.10,2013-07-03 21:02:00,
2013-07-03 16:17:00,95.1,45.0,29.89,East,79,3.0,6.0,18,0.00,,,0.00,weatherlink.com 1.10,2013-07-03 21:17:00,
2013-07-03 16:47:00,94.5,45.0,29.88,NE,37,8.0,10.0,18,0.00,,,0.00,weatherlink.com 1.10,2013-07-03 21:47:00,
2013-07-03 17:02:00,95.3,46.0,29.87,SSW,194,1.0,5.0,18,0.00,,,0.00,weatherlink.com 1.10,2013-07-03 22:02:00,
2013-07-03 17:17:00,95.4,44.0,29.87,SW,214,3.0,7.0,17,0.00,,,0.00,weatherlink.com 1.10,2013-07-03 22:17:00,
2013-07-03 17:32:00,96.5,43.0,29.86,North,10,3.0,5.0,16,0.00,,,0.00,weatherlink.com 1.10,2013-07-03 22:32:00,
2013-07-03 17:47:00,96.1,45.0,29.86,ENE,58,3.0,5.0,17,0.00,,,0.00,weatherlink.com 1.10,2013-07-03 22:47:00,
2013-07-03 18:03:00,94.9,45.0,29.85,East,92,1.0,7.0,18,0.00,,,0.00,weatherlink.com 1.10,2013-07-03 23:03:00,
2013-07-03 18:18:00,94.7,44.0,29.85,ENE,72,1.0,7.0,17,0.00,,,0.00,weatherlink.com 1.10,2013-07-03 23:18:00,
2013-07-03 18:33:00,95.2,44.0,29.85,SW,219,2.0,7.0,17,0.00,,,0.00,weatherlink.com 1.10,2013-07-03 23:33:00,
2013-07-03 18:48:00,95.9,45.0,29.85,ESE,103,2.0,3.0,17,0.00,,,0.00,weatherlink.com 1.10,2013-07-03 23:48:00,
2013-07-03 19:18:00,94.3,43.0,29.85,NE,56,1.0,4.0,17,0.00,,,0.00,weatherlink.com 1.10,2013-07-04 00:18:00,
2013-07-03 19:33:00,95.2,45.0,29.85,NNW,341,1.0,2.0,18,0.00,,,0.00,weatherlink.com 1.10,2013-07-04 00:33:00,
2013-07-03 19:48:00,93.7,47.0,29.85,ESE,104,0.0,2.0,20,0.00,,,0.00,weatherlink.com 1.10,2013-07-04 00:48:00,
2013-07-03 20:03:00,93.2,48.0,29.85,ESE,106,1.0,1.0,21,0.00,,,0.00,weatherlink.com 1.10,2013-07-04 01:03:00,
2013-07-03 20:33:00,87.3,48.0,29.85,WSW,242,1.0,5.0,26,0.00,,,0.00,weatherlink.com 1.10,2013-07-04 01:33:00,
2013-07-03 21:03:00,82.8,52.0,29.86,WSW,252,0.0,1.0,34,0.00,,,0.00,weatherlink.com 1.10,2013-07-04 02:03:00,
2013-07-03 21:18:00,79.7,52.0,29.86,WSW,252,0.0,0.0,38,0.00,,,0.00,weatherlink.com 1.10,2013-07-04 02:18:00,
2013-07-03 21:33:00,79.3,54.0,29.87,East,79,1.0,6.0,41,0.00,,,0.00,weatherlink.com 1.10,2013-07-04 02:33:00,
2013-07-03 21:48:00,79.4,57.0,29.88,SE,143,2.0,3.0,46,0.00,,,0.00,weatherlink.com 1.10,2013-07-04 02:48:00,
2013-07-03 22:18:00,80.2,64.0,29.89,ESE,115,3.0,8.0,58,0.00,,,0.00,weatherlink.com 1.10,2013-07-04 03:18:00,
2013-07-03 22:48:00,79.8,65.0,29.90,SSE,150,2.0,8.0,61,0.00,,,0.00,weatherlink.com 1.10,2013-07-04 03:48:00,
2013-07-03 23:03:00,79.2,65.0,29.90,SE,129,6.0,8.0,62,0.00,,,0.00,weatherlink.com 1.10,2013-07-04 04:03:00,
2013-07-03 23:18:00,78.8,64.0,29.90,SE,143,4.0,8.0,61,0.00,,,0.00,weatherlink.com 1.10,2013-07-04 04:18:00,
2013-07-03 23:33:00,78.2,64.0,29.90,ESE,110,6.0,8.0,62,0.00,,,0.00,weatherlink.com 1.10,2013-07-04 04:33:00,
2013-07-03 23:48:00,78.1,64.0,29.90,SE,143,4.0,12.0,63,0.00,,,0.00,weatherlink.com 1.10,2013-07-04 04:48:00,